sensor_id;sensor_type;location;lat;lon;timestamp;P1;durP1;ratioP1;P2;durP2;ratioP2
12962;SDS011;6546;49.882;8.666;2023-08-06T00:01:56;5.33;;;4.30;;
12962;SDS011;6546;49.882;8.666;2023-08-06T00:04:23;4.10;;;3.77;;
12962;SDS011;6546;49.882;8.666;2023-08-06T00:06:49;5.40;;;3.67;;
12962;SDS011;6546;49.882;8.666;2023-08-06T00:09:17;5.40;;;3.70;;
12962;SDS011;6546;49.882;8.666;2023-08-06T00:11:43;4.23;;;3.70;;
12962;SDS011;6546;49.882;8.666;2023-08-06T00:14:11;4.07;;;3.67;;
12962;SDS011;6546;49.882;8.666;2023-08-06T00:16:40;5.27;;;4.00;;
12962;SDS011;6546;49.882;8.666;2023-08-06T00:19:08;3.80;;;3.50;;
12962;SDS011;6546;49.882;8.666;2023-08-06T00:21:35;6.10;;;4.00;;
12962;SDS011;6546;49.882;8.666;2023-08-06T00:24:01;4.07;;;3.67;;
12962;SDS011;6546;49.882;8.666;2023-08-06T00:26:29;3.80;;;3.50;;
12962;SDS011;6546;49.882;8.666;2023-08-06T00:28:56;4.97;;;3.30;;
12962;SDS011;6546;49.882;8.666;2023-08-06T00:31:23;4.13;;;3.07;;
12962;SDS011;6546;49.882;8.666;2023-08-06T00:33:49;4.50;;;3.00;;
12962;SDS011;6546;49.882;8.666;2023-08-06T00:36:16;3.87;;;3.47;;
12962;SDS011;6546;49.882;8.666;2023-08-06T00:38:42;5.20;;;3.40;;
12962;SDS011;6546;49.882;8.666;2023-08-06T00:41:09;4.93;;;3.30;;
12962;SDS011;6546;49.882;8.666;2023-08-06T00:43:37;3.87;;;3.27;;
12962;SDS011;6546;49.882;8.666;2023-08-06T00:46:03;6.57;;;3.50;;
12962;SDS011;6546;49.882;8.666;2023-08-06T00:48:30;3.97;;;3.60;;
12962;SDS011;6546;49.882;8.666;2023-08-06T00:50:57;3.87;;;3.50;;
12962;SDS011;6546;49.882;8.666;2023-08-06T00:53:24;5.40;;;3.47;;
12962;SDS011;6546;49.882;8.666;2023-08-06T00:55:51;4.90;;;4.03;;
12962;SDS011;6546;49.882;8.666;2023-08-06T00:58:18;4.10;;;3.70;;
12962;SDS011;6546;49.882;8.666;2023-08-06T01:00:46;5.43;;;4.07;;
12962;SDS011;6546;49.882;8.666;2023-08-06T01:03:13;3.60;;;3.30;;
12962;SDS011;6546;49.882;8.666;2023-08-06T01:05:40;3.43;;;3.13;;
12962;SDS011;6546;49.882;8.666;2023-08-06T01:08:17;3.50;;;3.17;;
12962;SDS011;6546;49.882;8.666;2023-08-06T01:10:53;9.40;;;3.67;;
12962;SDS011;6546;49.882;8.666;2023-08-06T01:13:31;5.80;;;3.90;;
12962;SDS011;6546;49.882;8.666;2023-08-06T01:16:04;4.50;;;3.40;;
12962;SDS011;6546;49.882;8.666;2023-08-06T01:18:32;3.83;;;3.43;;
12962;SDS011;6546;49.882;8.666;2023-08-06T01:21:00;3.90;;;3.50;;
12962;SDS011;6546;49.882;8.666;2023-08-06T01:23:26;4.80;;;3.53;;
12962;SDS011;6546;49.882;8.666;2023-08-06T01:25:56;4.70;;;4.20;;
12962;SDS011;6546;49.882;8.666;2023-08-06T01:28:31;4.07;;;3.53;;
12962;SDS011;6546;49.882;8.666;2023-08-06T01:31:04;4.03;;;3.63;;
12962;SDS011;6546;49.882;8.666;2023-08-06T01:33:36;4.03;;;2.90;;
12962;SDS011;6546;49.882;8.666;2023-08-06T01:36:11;4.40;;;2.90;;
12962;SDS011;6546;49.882;8.666;2023-08-06T01:38:38;3.70;;;2.90;;
12962;SDS011;6546;49.882;8.666;2023-08-06T01:41:05;3.30;;;3.00;;
12962;SDS011;6546;49.882;8.666;2023-08-06T01:43:31;3.30;;;2.93;;
12962;SDS011;6546;49.882;8.666;2023-08-06T01:45:58;4.03;;;3.23;;
12962;SDS011;6546;49.882;8.666;2023-08-06T01:48:24;3.73;;;3.20;;
12962;SDS011;6546;49.882;8.666;2023-08-06T01:50:51;3.63;;;3.10;;
12962;SDS011;6546;49.882;8.666;2023-08-06T01:53:19;3.73;;;3.20;;
12962;SDS011;6546;49.882;8.666;2023-08-06T01:55:47;6.33;;;3.20;;
12962;SDS011;6546;49.882;8.666;2023-08-06T01:58:14;3.77;;;2.90;;
12962;SDS011;6546;49.882;8.666;2023-08-06T02:00:40;3.87;;;3.17;;
12962;SDS011;6546;49.882;8.666;2023-08-06T02:03:07;3.47;;;3.00;;
12962;SDS011;6546;49.882;8.666;2023-08-06T02:05:33;4.37;;;2.80;;
12962;SDS011;6546;49.882;8.666;2023-08-06T02:08:00;3.33;;;2.80;;
12962;SDS011;6546;49.882;8.666;2023-08-06T02:10:30;3.30;;;3.00;;
12962;SDS011;6546;49.882;8.666;2023-08-06T02:12:56;4.20;;;2.60;;
12962;SDS011;6546;49.882;8.666;2023-08-06T02:15:23;3.63;;;2.80;;
12962;SDS011;6546;49.882;8.666;2023-08-06T02:17:50;2.97;;;2.67;;
12962;SDS011;6546;49.882;8.666;2023-08-06T02:20:16;3.43;;;3.00;;
12962;SDS011;6546;49.882;8.666;2023-08-06T02:22:43;5.27;;;2.80;;
12962;SDS011;6546;49.882;8.666;2023-08-06T02:25:09;6.60;;;2.70;;
12962;SDS011;6546;49.882;8.666;2023-08-06T02:27:38;5.43;;;2.77;;
12962;SDS011;6546;49.882;8.666;2023-08-06T02:30:07;4.80;;;2.70;;
12962;SDS011;6546;49.882;8.666;2023-08-06T02:32:34;3.90;;;2.50;;
12962;SDS011;6546;49.882;8.666;2023-08-06T02:35:01;3.30;;;2.37;;
12962;SDS011;6546;49.882;8.666;2023-08-06T02:37:27;4.10;;;2.40;;
12962;SDS011;6546;49.882;8.666;2023-08-06T02:39:54;3.87;;;2.70;;
12962;SDS011;6546;49.882;8.666;2023-08-06T02:42:20;4.03;;;2.23;;
12962;SDS011;6546;49.882;8.666;2023-08-06T02:44:49;3.50;;;2.20;;
12962;SDS011;6546;49.882;8.666;2023-08-06T02:47:16;4.70;;;3.03;;
12962;SDS011;6546;49.882;8.666;2023-08-06T02:49:43;4.43;;;2.33;;
12962;SDS011;6546;49.882;8.666;2023-08-06T02:52:09;3.70;;;2.23;;
12962;SDS011;6546;49.882;8.666;2023-08-06T02:54:36;3.43;;;2.43;;
12962;SDS011;6546;49.882;8.666;2023-08-06T02:57:02;2.63;;;2.30;;
12962;SDS011;6546;49.882;8.666;2023-08-06T02:59:29;3.13;;;2.50;;
12962;SDS011;6546;49.882;8.666;2023-08-06T03:01:57;3.67;;;2.70;;
12962;SDS011;6546;49.882;8.666;2023-08-06T03:04:24;2.90;;;2.20;;
12962;SDS011;6546;49.882;8.666;2023-08-06T03:06:50;3.30;;;2.70;;
12962;SDS011;6546;49.882;8.666;2023-08-06T03:09:17;2.97;;;2.57;;
12962;SDS011;6546;49.882;8.666;2023-08-06T03:11:44;4.80;;;2.60;;
12962;SDS011;6546;49.882;8.666;2023-08-06T03:14:10;5.37;;;2.30;;
12962;SDS011;6546;49.882;8.666;2023-08-06T03:16:37;3.13;;;2.33;;
12962;SDS011;6546;49.882;8.666;2023-08-06T03:19:04;2.70;;;2.33;;
12962;SDS011;6546;49.882;8.666;2023-08-06T03:21:31;3.70;;;2.40;;
12962;SDS011;6546;49.882;8.666;2023-08-06T03:23:57;5.17;;;2.63;;
12962;SDS011;6546;49.882;8.666;2023-08-06T03:26:24;5.73;;;2.53;;
12962;SDS011;6546;49.882;8.666;2023-08-06T03:28:50;4.67;;;2.50;;
12962;SDS011;6546;49.882;8.666;2023-08-06T03:31:17;3.73;;;2.23;;
12962;SDS011;6546;49.882;8.666;2023-08-06T03:33:43;2.83;;;2.10;;
12962;SDS011;6546;49.882;8.666;2023-08-06T03:36:11;3.03;;;2.70;;
12962;SDS011;6546;49.882;8.666;2023-08-06T03:38:38;2.37;;;2.17;;
12962;SDS011;6546;49.882;8.666;2023-08-06T03:41:04;3.43;;;2.70;;
12962;SDS011;6546;49.882;8.666;2023-08-06T03:43:31;3.03;;;2.57;;
12962;SDS011;6546;49.882;8.666;2023-08-06T03:45:57;4.20;;;2.30;;
12962;SDS011;6546;49.882;8.666;2023-08-06T03:48:24;3.30;;;2.30;;
12962;SDS011;6546;49.882;8.666;2023-08-06T03:50:50;6.23;;;2.40;;
12962;SDS011;6546;49.882;8.666;2023-08-06T03:53:18;2.87;;;2.50;;
12962;SDS011;6546;49.882;8.666;2023-08-06T03:55:45;5.20;;;2.80;;
12962;SDS011;6546;49.882;8.666;2023-08-06T03:58:11;4.20;;;2.83;;
12962;SDS011;6546;49.882;8.666;2023-08-06T04:00:38;4.43;;;2.47;;
12962;SDS011;6546;49.882;8.666;2023-08-06T04:03:04;5.37;;;2.40;;
12962;SDS011;6546;49.882;8.666;2023-08-06T04:05:31;3.00;;;2.67;;
12962;SDS011;6546;49.882;8.666;2023-08-06T04:07:57;4.63;;;2.80;;
12962;SDS011;6546;49.882;8.666;2023-08-06T04:10:26;5.60;;;3.00;;
12962;SDS011;6546;49.882;8.666;2023-08-06T04:12:53;6.23;;;3.20;;
12962;SDS011;6546;49.882;8.666;2023-08-06T04:15:19;4.97;;;3.13;;
12962;SDS011;6546;49.882;8.666;2023-08-06T04:17:46;4.53;;;3.10;;
12962;SDS011;6546;49.882;8.666;2023-08-06T04:20:13;7.80;;;3.30;;
12962;SDS011;6546;49.882;8.666;2023-08-06T04:22:39;6.00;;;3.60;;
12962;SDS011;6546;49.882;8.666;2023-08-06T04:25:06;7.80;;;3.60;;
12962;SDS011;6546;49.882;8.666;2023-08-06T04:27:34;5.30;;;3.43;;
12962;SDS011;6546;49.882;8.666;2023-08-06T04:30:02;3.67;;;3.07;;
12962;SDS011;6546;49.882;8.666;2023-08-06T04:32:30;6.33;;;3.90;;
12962;SDS011;6546;49.882;8.666;2023-08-06T04:34:56;4.00;;;3.30;;
12962;SDS011;6546;49.882;8.666;2023-08-06T04:37:23;3.73;;;3.43;;
12962;SDS011;6546;49.882;8.666;2023-08-06T04:39:50;6.80;;;3.47;;
12962;SDS011;6546;49.882;8.666;2023-08-06T04:42:16;4.43;;;3.50;;
12962;SDS011;6546;49.882;8.666;2023-08-06T04:44:44;4.23;;;3.83;;
12962;SDS011;6546;49.882;8.666;2023-08-06T04:47:11;6.20;;;3.27;;
12962;SDS011;6546;49.882;8.666;2023-08-06T04:49:38;6.23;;;3.40;;
12962;SDS011;6546;49.882;8.666;2023-08-06T04:52:05;4.73;;;3.40;;
12962;SDS011;6546;49.882;8.666;2023-08-06T04:54:31;5.40;;;3.47;;
12962;SDS011;6546;49.882;8.666;2023-08-06T04:56:58;3.97;;;2.90;;
12962;SDS011;6546;49.882;8.666;2023-08-06T04:59:24;6.20;;;3.10;;
12962;SDS011;6546;49.882;8.666;2023-08-06T05:01:52;5.30;;;2.67;;
12962;SDS011;6546;49.882;8.666;2023-08-06T05:04:19;6.30;;;2.77;;
12962;SDS011;6546;49.882;8.666;2023-08-06T05:06:46;3.23;;;2.13;;
12962;SDS011;6546;49.882;8.666;2023-08-06T05:09:14;5.30;;;2.50;;
12962;SDS011;6546;49.882;8.666;2023-08-06T05:11:40;5.43;;;2.63;;
12962;SDS011;6546;49.882;8.666;2023-08-06T05:14:07;7.83;;;2.53;;
12962;SDS011;6546;49.882;8.666;2023-08-06T05:16:33;2.47;;;2.20;;
12962;SDS011;6546;49.882;8.666;2023-08-06T05:19:01;3.70;;;1.97;;
12962;SDS011;6546;49.882;8.666;2023-08-06T05:21:28;4.03;;;2.20;;
12962;SDS011;6546;49.882;8.666;2023-08-06T05:23:54;3.43;;;2.27;;
12962;SDS011;6546;49.882;8.666;2023-08-06T05:26:21;5.30;;;2.47;;
12962;SDS011;6546;49.882;8.666;2023-08-06T05:28:47;4.77;;;2.10;;
12962;SDS011;6546;49.882;8.666;2023-08-06T05:31:14;5.87;;;2.43;;
12962;SDS011;6546;49.882;8.666;2023-08-06T05:33:40;3.93;;;2.60;;
12962;SDS011;6546;49.882;8.666;2023-08-06T05:36:11;3.57;;;2.20;;
12962;SDS011;6546;49.882;8.666;2023-08-06T05:38:38;4.60;;;1.93;;
12962;SDS011;6546;49.882;8.666;2023-08-06T05:41:05;3.70;;;2.37;;
12962;SDS011;6546;49.882;8.666;2023-08-06T05:43:31;3.37;;;2.10;;
12962;SDS011;6546;49.882;8.666;2023-08-06T05:45:58;3.17;;;2.00;;
12962;SDS011;6546;49.882;8.666;2023-08-06T05:48:24;2.87;;;2.20;;
12962;SDS011;6546;49.882;8.666;2023-08-06T05:50:55;4.10;;;2.27;;
12962;SDS011;6546;49.882;8.666;2023-08-06T05:53:23;5.37;;;2.50;;
12962;SDS011;6546;49.882;8.666;2023-08-06T05:55:50;3.03;;;2.30;;
12962;SDS011;6546;49.882;8.666;2023-08-06T05:58:20;4.87;;;2.50;;
12962;SDS011;6546;49.882;8.666;2023-08-06T06:00:46;5.13;;;2.70;;
12962;SDS011;6546;49.882;8.666;2023-08-06T06:03:13;3.17;;;2.50;;
12962;SDS011;6546;49.882;8.666;2023-08-06T06:05:39;4.60;;;2.37;;
12962;SDS011;6546;49.882;8.666;2023-08-06T06:08:06;3.60;;;2.40;;
12962;SDS011;6546;49.882;8.666;2023-08-06T06:10:34;7.70;;;2.50;;
12962;SDS011;6546;49.882;8.666;2023-08-06T06:13:01;5.50;;;2.37;;
12962;SDS011;6546;49.882;8.666;2023-08-06T06:15:27;4.93;;;2.70;;
12962;SDS011;6546;49.882;8.666;2023-08-06T06:17:54;4.57;;;2.60;;
12962;SDS011;6546;49.882;8.666;2023-08-06T06:20:21;3.70;;;2.80;;
12962;SDS011;6546;49.882;8.666;2023-08-06T06:22:48;4.27;;;2.27;;
12962;SDS011;6546;49.882;8.666;2023-08-06T06:25:14;5.53;;;2.47;;
12962;SDS011;6546;49.882;8.666;2023-08-06T06:27:42;5.67;;;2.57;;
12962;SDS011;6546;49.882;8.666;2023-08-06T06:30:09;3.73;;;1.93;;
12962;SDS011;6546;49.882;8.666;2023-08-06T06:32:37;3.53;;;1.87;;
12962;SDS011;6546;49.882;8.666;2023-08-06T06:35:05;2.13;;;1.80;;
12962;SDS011;6546;49.882;8.666;2023-08-06T06:37:31;3.70;;;1.80;;
12962;SDS011;6546;49.882;8.666;2023-08-06T06:39:58;2.20;;;1.90;;
12962;SDS011;6546;49.882;8.666;2023-08-06T06:42:24;3.73;;;1.83;;
12962;SDS011;6546;49.882;8.666;2023-08-06T06:44:52;2.90;;;1.63;;
12962;SDS011;6546;49.882;8.666;2023-08-06T06:47:19;2.60;;;1.50;;
12962;SDS011;6546;49.882;8.666;2023-08-06T06:49:47;3.87;;;1.70;;
12962;SDS011;6546;49.882;8.666;2023-08-06T06:52:14;6.27;;;2.07;;
12962;SDS011;6546;49.882;8.666;2023-08-06T06:54:40;3.57;;;1.50;;
12962;SDS011;6546;49.882;8.666;2023-08-06T06:57:07;1.63;;;1.20;;
12962;SDS011;6546;49.882;8.666;2023-08-06T06:59:33;1.97;;;1.43;;
12962;SDS011;6546;49.882;8.666;2023-08-06T07:02:01;1.93;;;1.73;;
12962;SDS011;6546;49.882;8.666;2023-08-06T07:04:28;3.27;;;1.70;;
12962;SDS011;6546;49.882;8.666;2023-08-06T07:06:54;2.17;;;1.53;;
12962;SDS011;6546;49.882;8.666;2023-08-06T07:09:21;4.33;;;1.60;;
12962;SDS011;6546;49.882;8.666;2023-08-06T07:11:48;3.47;;;1.70;;
12962;SDS011;6546;49.882;8.666;2023-08-06T07:14:14;5.70;;;1.70;;
12962;SDS011;6546;49.882;8.666;2023-08-06T07:16:41;2.40;;;1.77;;
12962;SDS011;6546;49.882;8.666;2023-08-06T07:19:09;2.70;;;1.50;;
12962;SDS011;6546;49.882;8.666;2023-08-06T07:21:35;4.57;;;1.90;;
12962;SDS011;6546;49.882;8.666;2023-08-06T07:24:02;3.13;;;1.90;;
12962;SDS011;6546;49.882;8.666;2023-08-06T07:26:28;2.73;;;1.90;;
12962;SDS011;6546;49.882;8.666;2023-08-06T07:28:55;3.87;;;1.60;;
12962;SDS011;6546;49.882;8.666;2023-08-06T07:31:22;3.27;;;1.77;;
12962;SDS011;6546;49.882;8.666;2023-08-06T07:33:48;2.60;;;1.63;;
12962;SDS011;6546;49.882;8.666;2023-08-06T07:36:16;3.33;;;1.80;;
12962;SDS011;6546;49.882;8.666;2023-08-06T07:38:43;2.57;;;1.80;;
12962;SDS011;6546;49.882;8.666;2023-08-06T07:41:09;3.00;;;2.03;;
12962;SDS011;6546;49.882;8.666;2023-08-06T07:43:36;2.67;;;1.87;;
12962;SDS011;6546;49.882;8.666;2023-08-06T07:46:03;3.80;;;2.00;;
12962;SDS011;6546;49.882;8.666;2023-08-06T07:48:29;4.23;;;2.50;;
12962;SDS011;6546;49.882;8.666;2023-08-06T07:50:56;4.13;;;2.07;;
12962;SDS011;6546;49.882;8.666;2023-08-06T07:53:25;3.57;;;1.90;;
12962;SDS011;6546;49.882;8.666;2023-08-06T07:55:54;3.13;;;2.00;;
12962;SDS011;6546;49.882;8.666;2023-08-06T07:58:21;3.50;;;1.90;;
12962;SDS011;6546;49.882;8.666;2023-08-06T08:00:49;4.13;;;1.93;;
12962;SDS011;6546;49.882;8.666;2023-08-06T08:03:16;3.03;;;1.60;;
12962;SDS011;6546;49.882;8.666;2023-08-06T08:05:43;2.80;;;1.80;;
12962;SDS011;6546;49.882;8.666;2023-08-06T08:08:10;4.00;;;1.73;;
12962;SDS011;6546;49.882;8.666;2023-08-06T08:10:38;2.20;;;1.80;;
12962;SDS011;6546;49.882;8.666;2023-08-06T08:13:05;2.80;;;1.70;;
12962;SDS011;6546;49.882;8.666;2023-08-06T08:15:32;5.13;;;1.90;;
12962;SDS011;6546;49.882;8.666;2023-08-06T08:17:59;4.13;;;1.60;;
12962;SDS011;6546;49.882;8.666;2023-08-06T08:20:25;2.13;;;1.50;;
12962;SDS011;6546;49.882;8.666;2023-08-06T08:22:56;3.13;;;1.87;;
12962;SDS011;6546;49.882;8.666;2023-08-06T08:25:23;2.80;;;1.40;;
12962;SDS011;6546;49.882;8.666;2023-08-06T08:27:52;4.37;;;1.73;;
12962;SDS011;6546;49.882;8.666;2023-08-06T08:30:18;3.00;;;1.70;;
12962;SDS011;6546;49.882;8.666;2023-08-06T08:32:45;3.40;;;1.67;;
12962;SDS011;6546;49.882;8.666;2023-08-06T08:35:11;3.67;;;1.33;;
12962;SDS011;6546;49.882;8.666;2023-08-06T08:37:38;2.97;;;1.43;;
12962;SDS011;6546;49.882;8.666;2023-08-06T08:40:06;2.27;;;1.20;;
12962;SDS011;6546;49.882;8.666;2023-08-06T08:42:34;3.20;;;1.17;;
12962;SDS011;6546;49.882;8.666;2023-08-06T08:45:03;3.07;;;1.30;;
12962;SDS011;6546;49.882;8.666;2023-08-06T08:47:30;2.27;;;1.30;;
12962;SDS011;6546;49.882;8.666;2023-08-06T08:49:58;1.57;;;1.10;;
12962;SDS011;6546;49.882;8.666;2023-08-06T08:52:26;2.33;;;1.20;;
12962;SDS011;6546;49.882;8.666;2023-08-06T08:54:55;3.13;;;1.30;;
12962;SDS011;6546;49.882;8.666;2023-08-06T08:57:22;3.00;;;1.10;;
12962;SDS011;6546;49.882;8.666;2023-08-06T08:59:49;1.53;;;1.13;;
12962;SDS011;6546;49.882;8.666;2023-08-06T09:02:17;2.10;;;0.97;;
12962;SDS011;6546;49.882;8.666;2023-08-06T09:04:47;2.27;;;0.90;;
12962;SDS011;6546;49.882;8.666;2023-08-06T09:07:16;1.20;;;1.03;;
12962;SDS011;6546;49.882;8.666;2023-08-06T09:09:45;2.93;;;0.90;;
12962;SDS011;6546;49.882;8.666;2023-08-06T09:12:15;1.87;;;0.80;;
12962;SDS011;6546;49.882;8.666;2023-08-06T09:14:42;2.07;;;0.80;;
12962;SDS011;6546;49.882;8.666;2023-08-06T09:17:09;0.77;;;0.73;;
12962;SDS011;6546;49.882;8.666;2023-08-06T09:19:39;1.53;;;0.90;;
12962;SDS011;6546;49.882;8.666;2023-08-06T09:22:11;2.10;;;1.00;;
12962;SDS011;6546;49.882;8.666;2023-08-06T09:24:39;0.70;;;0.70;;
12962;SDS011;6546;49.882;8.666;2023-08-06T09:27:08;1.17;;;0.70;;
12962;SDS011;6546;49.882;8.666;2023-08-06T09:29:39;1.33;;;0.80;;
12962;SDS011;6546;49.882;8.666;2023-08-06T09:32:06;1.90;;;0.87;;
12962;SDS011;6546;49.882;8.666;2023-08-06T09:34:33;1.77;;;0.70;;
12962;SDS011;6546;49.882;8.666;2023-08-06T09:37:01;1.70;;;0.80;;
12962;SDS011;6546;49.882;8.666;2023-08-06T09:39:30;0.80;;;0.80;;
12962;SDS011;6546;49.882;8.666;2023-08-06T09:41:57;1.53;;;1.00;;
12962;SDS011;6546;49.882;8.666;2023-08-06T09:44:25;1.30;;;0.93;;
12962;SDS011;6546;49.882;8.666;2023-08-06T09:46:54;1.37;;;1.00;;
12962;SDS011;6546;49.882;8.666;2023-08-06T09:49:21;3.10;;;0.87;;
12962;SDS011;6546;49.882;8.666;2023-08-06T09:51:52;0.70;;;0.70;;
12962;SDS011;6546;49.882;8.666;2023-08-06T09:54:22;0.60;;;0.60;;
12962;SDS011;6546;49.882;8.666;2023-08-06T09:56:49;3.17;;;0.83;;
12962;SDS011;6546;49.882;8.666;2023-08-06T09:59:17;1.30;;;0.80;;
12962;SDS011;6546;49.882;8.666;2023-08-06T10:01:50;1.23;;;0.90;;
12962;SDS011;6546;49.882;8.666;2023-08-06T10:04:17;4.10;;;1.27;;
12962;SDS011;6546;49.882;8.666;2023-08-06T10:06:46;1.50;;;0.80;;
12962;SDS011;6546;49.882;8.666;2023-08-06T10:09:13;2.43;;;0.90;;
12962;SDS011;6546;49.882;8.666;2023-08-06T10:11:42;0.77;;;0.70;;
12962;SDS011;6546;49.882;8.666;2023-08-06T10:14:13;0.60;;;0.60;;
12962;SDS011;6546;49.882;8.666;2023-08-06T10:16:44;1.00;;;0.90;;
12962;SDS011;6546;49.882;8.666;2023-08-06T10:19:13;0.80;;;0.80;;
12962;SDS011;6546;49.882;8.666;2023-08-06T10:21:41;0.60;;;0.60;;
12962;SDS011;6546;49.882;8.666;2023-08-06T10:24:28;1.57;;;0.90;;
12962;SDS011;6546;49.882;8.666;2023-08-06T10:27:13;1.03;;;0.83;;
12962;SDS011;6546;49.882;8.666;2023-08-06T10:29:39;1.13;;;0.90;;
12962;SDS011;6546;49.882;8.666;2023-08-06T10:32:06;1.07;;;0.80;;
12962;SDS011;6546;49.882;8.666;2023-08-06T10:37:22;0.63;;;0.63;;
12962;SDS011;6546;49.882;8.666;2023-08-06T10:39:50;0.60;;;0.60;;
12962;SDS011;6546;49.882;8.666;2023-08-06T10:42:22;1.10;;;0.90;;
12962;SDS011;6546;49.882;8.666;2023-08-06T10:47:37;1.53;;;0.50;;
12962;SDS011;6546;49.882;8.666;2023-08-06T10:50:06;0.70;;;0.70;;
12962;SDS011;6546;49.882;8.666;2023-08-06T10:52:33;1.30;;;0.80;;
12962;SDS011;6546;49.882;8.666;2023-08-06T10:55:00;0.60;;;0.60;;
12962;SDS011;6546;49.882;8.666;2023-08-06T10:57:28;1.07;;;0.60;;
12962;SDS011;6546;49.882;8.666;2023-08-06T10:59:54;0.50;;;0.50;;
12962;SDS011;6546;49.882;8.666;2023-08-06T11:02:21;0.60;;;0.60;;
12962;SDS011;6546;49.882;8.666;2023-08-06T11:04:47;0.80;;;0.40;;
12962;SDS011;6546;49.882;8.666;2023-08-06T11:07:14;0.40;;;0.37;;
12962;SDS011;6546;49.882;8.666;2023-08-06T11:09:42;0.40;;;0.40;;
12962;SDS011;6546;49.882;8.666;2023-08-06T11:12:08;1.10;;;0.50;;
12962;SDS011;6546;49.882;8.666;2023-08-06T11:14:37;0.73;;;0.53;;
12962;SDS011;6546;49.882;8.666;2023-08-06T11:17:04;1.37;;;0.67;;
12962;SDS011;6546;49.882;8.666;2023-08-06T11:19:30;1.37;;;0.40;;
12962;SDS011;6546;49.882;8.666;2023-08-06T11:21:57;0.97;;;0.47;;
12962;SDS011;6546;49.882;8.666;2023-08-06T11:24:24;0.43;;;0.40;;
12962;SDS011;6546;49.882;8.666;2023-08-06T11:26:51;0.50;;;0.50;;
12962;SDS011;6546;49.882;8.666;2023-08-06T11:29:17;0.37;;;0.37;;
12962;SDS011;6546;49.882;8.666;2023-08-06T11:31:45;0.50;;;0.50;;
12962;SDS011;6546;49.882;8.666;2023-08-06T11:34:12;3.30;;;0.60;;
12962;SDS011;6546;49.882;8.666;2023-08-06T11:36:39;0.67;;;0.40;;
12962;SDS011;6546;49.882;8.666;2023-08-06T11:39:07;0.40;;;0.40;;
12962;SDS011;6546;49.882;8.666;2023-08-06T11:41:34;1.13;;;0.50;;
12962;SDS011;6546;49.882;8.666;2023-08-06T11:44:03;1.00;;;0.30;;
12962;SDS011;6546;49.882;8.666;2023-08-06T11:46:42;0.30;;;0.30;;
12962;SDS011;6546;49.882;8.666;2023-08-06T11:49:18;1.60;;;0.30;;
12962;SDS011;6546;49.882;8.666;2023-08-06T11:51:47;0.40;;;0.40;;
12962;SDS011;6546;49.882;8.666;2023-08-06T11:54:13;0.50;;;0.50;;
12962;SDS011;6546;49.882;8.666;2023-08-06T11:56:40;0.30;;;0.30;;
12962;SDS011;6546;49.882;8.666;2023-08-06T11:59:07;0.40;;;0.40;;
12962;SDS011;6546;49.882;8.666;2023-08-06T12:01:35;1.63;;;0.60;;
12962;SDS011;6546;49.882;8.666;2023-08-06T12:04:03;0.97;;;0.50;;
12962;SDS011;6546;49.882;8.666;2023-08-06T12:06:30;0.60;;;0.40;;
12962;SDS011;6546;49.882;8.666;2023-08-06T12:08:57;0.90;;;0.40;;
12962;SDS011;6546;49.882;8.666;2023-08-06T12:11:23;0.63;;;0.50;;
12962;SDS011;6546;49.882;8.666;2023-08-06T12:13:50;0.53;;;0.40;;
12962;SDS011;6546;49.882;8.666;2023-08-06T12:16:17;0.73;;;0.40;;
12962;SDS011;6546;49.882;8.666;2023-08-06T12:18:43;2.60;;;0.60;;
12962;SDS011;6546;49.882;8.666;2023-08-06T12:21:11;1.03;;;0.60;;
12962;SDS011;6546;49.882;8.666;2023-08-06T12:23:38;0.50;;;0.50;;
12962;SDS011;6546;49.882;8.666;2023-08-06T12:26:04;1.27;;;0.73;;
12962;SDS011;6546;49.882;8.666;2023-08-06T12:28:31;0.67;;;0.57;;
12962;SDS011;6546;49.882;8.666;2023-08-06T12:30:57;2.07;;;0.80;;
12962;SDS011;6546;49.882;8.666;2023-08-06T12:33:24;0.57;;;0.50;;
12962;SDS011;6546;49.882;8.666;2023-08-06T12:35:50;0.50;;;0.50;;
12962;SDS011;6546;49.882;8.666;2023-08-06T12:38:20;1.17;;;0.80;;
12962;SDS011;6546;49.882;8.666;2023-08-06T12:40:47;0.70;;;0.70;;
12962;SDS011;6546;49.882;8.666;2023-08-06T12:43:13;0.70;;;0.70;;
12962;SDS011;6546;49.882;8.666;2023-08-06T12:45:40;1.73;;;0.80;;
12962;SDS011;6546;49.882;8.666;2023-08-06T12:48:07;1.07;;;0.70;;
12962;SDS011;6546;49.882;8.666;2023-08-06T12:50:33;1.40;;;0.80;;
12962;SDS011;6546;49.882;8.666;2023-08-06T12:53:00;1.57;;;0.80;;
12962;SDS011;6546;49.882;8.666;2023-08-06T12:55:28;1.00;;;0.73;;
12962;SDS011;6546;49.882;8.666;2023-08-06T12:57:55;0.90;;;0.90;;
12962;SDS011;6546;49.882;8.666;2023-08-06T13:00:21;1.90;;;0.70;;
12962;SDS011;6546;49.882;8.666;2023-08-06T13:02:48;0.50;;;0.50;;
12962;SDS011;6546;49.882;8.666;2023-08-06T13:05:14;2.63;;;0.80;;
12962;SDS011;6546;49.882;8.666;2023-08-06T13:07:41;0.90;;;0.80;;
12962;SDS011;6546;49.882;8.666;2023-08-06T13:10:07;1.77;;;0.73;;
12962;SDS011;6546;49.882;8.666;2023-08-06T13:12:35;1.57;;;1.20;;
12962;SDS011;6546;49.882;8.666;2023-08-06T13:15:02;1.43;;;0.90;;
12962;SDS011;6546;49.882;8.666;2023-08-06T13:17:29;1.30;;;0.97;;
12962;SDS011;6546;49.882;8.666;2023-08-06T13:19:56;1.30;;;0.80;;
12962;SDS011;6546;49.882;8.666;2023-08-06T13:22:22;2.30;;;0.90;;
12962;SDS011;6546;49.882;8.666;2023-08-06T13:24:49;1.33;;;0.80;;
12962;SDS011;6546;49.882;8.666;2023-08-06T13:27:15;1.00;;;0.87;;
12962;SDS011;6546;49.882;8.666;2023-08-06T13:29:43;1.50;;;0.97;;
12962;SDS011;6546;49.882;8.666;2023-08-06T13:32:10;2.87;;;0.90;;
12962;SDS011;6546;49.882;8.666;2023-08-06T13:34:36;1.57;;;0.90;;
12962;SDS011;6546;49.882;8.666;2023-08-06T13:37:03;2.00;;;0.80;;
12962;SDS011;6546;49.882;8.666;2023-08-06T13:39:29;2.27;;;0.80;;
12962;SDS011;6546;49.882;8.666;2023-08-06T13:41:56;1.07;;;1.03;;
12962;SDS011;6546;49.882;8.666;2023-08-06T13:44:23;0.97;;;0.70;;
12962;SDS011;6546;49.882;8.666;2023-08-06T13:46:51;1.30;;;0.80;;
12962;SDS011;6546;49.882;8.666;2023-08-06T13:49:17;0.90;;;0.90;;
12962;SDS011;6546;49.882;8.666;2023-08-06T13:51:44;1.13;;;0.80;;
12962;SDS011;6546;49.882;8.666;2023-08-06T13:54:10;1.23;;;0.80;;
12962;SDS011;6546;49.882;8.666;2023-08-06T13:56:37;1.13;;;0.90;;
12962;SDS011;6546;49.882;8.666;2023-08-06T13:59:04;1.13;;;1.00;;
12962;SDS011;6546;49.882;8.666;2023-08-06T14:01:31;0.77;;;0.50;;
12962;SDS011;6546;49.882;8.666;2023-08-06T14:03:59;1.10;;;0.80;;
12962;SDS011;6546;49.882;8.666;2023-08-06T14:06:25;0.97;;;0.63;;
12962;SDS011;6546;49.882;8.666;2023-08-06T14:08:52;0.80;;;0.80;;
12962;SDS011;6546;49.882;8.666;2023-08-06T14:11:19;1.20;;;1.03;;
12962;SDS011;6546;49.882;8.666;2023-08-06T14:13:45;1.90;;;0.77;;
12962;SDS011;6546;49.882;8.666;2023-08-06T14:16:12;1.07;;;0.60;;
12962;SDS011;6546;49.882;8.666;2023-08-06T14:18:38;1.80;;;0.60;;
12962;SDS011;6546;49.882;8.666;2023-08-06T14:21:07;1.10;;;0.73;;
12962;SDS011;6546;49.882;8.666;2023-08-06T14:23:34;1.63;;;0.67;;
12962;SDS011;6546;49.882;8.666;2023-08-06T14:26:00;0.67;;;0.60;;
12962;SDS011;6546;49.882;8.666;2023-08-06T14:28:27;0.50;;;0.50;;
12962;SDS011;6546;49.882;8.666;2023-08-06T14:30:54;0.70;;;0.63;;
12962;SDS011;6546;49.882;8.666;2023-08-06T14:33:20;1.63;;;0.50;;
12962;SDS011;6546;49.882;8.666;2023-08-06T14:35:47;0.90;;;0.60;;
12962;SDS011;6546;49.882;8.666;2023-08-06T14:38:15;0.77;;;0.60;;
12962;SDS011;6546;49.882;8.666;2023-08-06T14:40:43;0.67;;;0.40;;
12962;SDS011;6546;49.882;8.666;2023-08-06T14:43:09;0.80;;;0.80;;
12962;SDS011;6546;49.882;8.666;2023-08-06T14:45:37;1.20;;;1.10;;
12962;SDS011;6546;49.882;8.666;2023-08-06T14:48:04;1.20;;;0.90;;
12962;SDS011;6546;49.882;8.666;2023-08-06T14:50:30;2.57;;;1.00;;
12962;SDS011;6546;49.882;8.666;2023-08-06T14:52:57;1.13;;;0.90;;
12962;SDS011;6546;49.882;8.666;2023-08-06T14:55:27;1.60;;;1.00;;
12962;SDS011;6546;49.882;8.666;2023-08-06T14:57:53;2.07;;;1.27;;
12962;SDS011;6546;49.882;8.666;2023-08-06T15:00:20;1.80;;;1.10;;
12962;SDS011;6546;49.882;8.666;2023-08-06T15:02:47;1.57;;;0.97;;
12962;SDS011;6546;49.882;8.666;2023-08-06T15:05:13;1.27;;;1.00;;
12962;SDS011;6546;49.882;8.666;2023-08-06T15:07:40;0.80;;;0.80;;